sensor_id;sensor_type;location;lat;lon;timestamp;temperature;humidity
27633;DHT22;15046;50.930;13.334;2023-12-20T00:01:38;4.60;99.90
27633;DHT22;15046;50.930;13.334;2023-12-20T00:04:04;4.60;99.90
27633;DHT22;15046;50.930;13.334;2023-12-20T00:06:30;4.60;99.90
27633;DHT22;15046;50.930;13.334;2023-12-20T00:08:56;4.50;99.90
27633;DHT22;15046;50.930;13.334;2023-12-20T00:11:24;4.50;99.90
27633;DHT22;15046;50.930;13.334;2023-12-20T00:13:49;4.50;99.90
27633;DHT22;15046;50.930;13.334;2023-12-20T00:16:15;4.50;99.90
27633;DHT22;15046;50.930;13.334;2023-12-20T00:18:41;4.50;99.90
27633;DHT22;15046;50.930;13.334;2023-12-20T00:21:07;4.50;99.90
27633;DHT22;15046;50.930;13.334;2023-12-20T00:23:33;4.50;99.90
27633;DHT22;15046;50.930;13.334;2023-12-20T00:25:59;4.40;99.90
27633;DHT22;15046;50.930;13.334;2023-12-20T00:28:25;4.40;99.90
27633;DHT22;15046;50.930;13.334;2023-12-20T00:30:51;4.40;99.90
27633;DHT22;15046;50.930;13.334;2023-12-20T00:33:16;4.40;99.90
27633;DHT22;15046;50.930;13.334;2023-12-20T00:35:42;4.30;99.90
27633;DHT22;15046;50.930;13.334;2023-12-20T00:38:08;4.30;99.90
27633;DHT22;15046;50.930;13.334;2023-12-20T00:40:35;4.30;99.90
27633;DHT22;15046;50.930;13.334;2023-12-20T00:43:01;4.30;99.90
27633;DHT22;15046;50.930;13.334;2023-12-20T00:45:27;4.30;99.90
27633;DHT22;15046;50.930;13.334;2023-12-20T00:47:53;4.30;99.90
27633;DHT22;15046;50.930;13.334;2023-12-20T00:50:19;4.30;99.90
27633;DHT22;15046;50.930;13.334;2023-12-20T00:52:44;4.20;99.90
27633;DHT22;15046;50.930;13.334;2023-12-20T00:55:11;4.20;99.90
27633;DHT22;15046;50.930;13.334;2023-12-20T00:57:37;4.20;99.90
27633;DHT22;15046;50.930;13.334;2023-12-20T01:00:03;4.20;99.90
27633;DHT22;15046;50.930;13.334;2023-12-20T01:02:29;4.20;99.90
27633;DHT22;15046;50.930;13.334;2023-12-20T01:04:55;4.20;99.90
27633;DHT22;15046;50.930;13.334;2023-12-20T01:07:21;4.20;99.90
27633;DHT22;15046;50.930;13.334;2023-12-20T01:09:47;4.10;99.90
27633;DHT22;15046;50.930;13.334;2023-12-20T01:12:13;4.10;99.90
27633;DHT22;15046;50.930;13.334;2023-12-20T01:14:39;4.10;99.90
27633;DHT22;15046;50.930;13.334;2023-12-20T01:17:05;4.10;99.90
27633;DHT22;15046;50.930;13.334;2023-12-20T01:19:31;4.10;99.90
27633;DHT22;15046;50.930;13.334;2023-12-20T01:21:57;4.10;99.90
27633;DHT22;15046;50.930;13.334;2023-12-20T01:24:22;4.00;99.90
27633;DHT22;15046;50.930;13.334;2023-12-20T01:26:48;4.00;99.90
27633;DHT22;15046;50.930;13.334;2023-12-20T01:29:14;4.10;99.90
27633;DHT22;15046;50.930;13.334;2023-12-20T01:31:41;4.10;99.90
27633;DHT22;15046;50.930;13.334;2023-12-20T01:34:07;4.10;99.90
27633;DHT22;15046;50.930;13.334;2023-12-20T01:36:33;4.00;99.90
27633;DHT22;15046;50.930;13.334;2023-12-20T01:38:59;4.10;99.90
27633;DHT22;15046;50.930;13.334;2023-12-20T01:41:25;4.10;99.90
27633;DHT22;15046;50.930;13.334;2023-12-20T01:43:51;4.00;99.90
27633;DHT22;15046;50.930;13.334;2023-12-20T01:46:20;4.00;99.90
27633;DHT22;15046;50.930;13.334;2023-12-20T01:48:47;4.00;99.90
27633;DHT22;15046;50.930;13.334;2023-12-20T01:51:13;4.00;99.90
27633;DHT22;15046;50.930;13.334;2023-12-20T01:53:40;4.00;99.90
27633;DHT22;15046;50.930;13.334;2023-12-20T01:56:07;3.90;99.90
27633;DHT22;15046;50.930;13.334;2023-12-20T01:58:33;3.90;99.90
27633;DHT22;15046;50.930;13.334;2023-12-20T02:01:03;3.90;99.90
27633;DHT22;15046;50.930;13.334;2023-12-20T02:03:29;3.90;99.90
27633;DHT22;15046;50.930;13.334;2023-12-20T02:05:55;3.90;99.90
27633;DHT22;15046;50.930;13.334;2023-12-20T02:08:21;3.90;99.90
27633;DHT22;15046;50.930;13.334;2023-12-20T02:10:47;3.90;99.90
27633;DHT22;15046;50.930;13.334;2023-12-20T02:13:13;3.90;99.90
27633;DHT22;15046;50.930;13.334;2023-12-20T02:15:38;3.90;99.90
27633;DHT22;15046;50.930;13.334;2023-12-20T02:18:07;3.90;99.90
27633;DHT22;15046;50.930;13.334;2023-12-20T02:20:33;3.90;99.90
27633;DHT22;15046;50.930;13.334;2023-12-20T02:22:59;3.80;99.90
27633;DHT22;15046;50.930;13.334;2023-12-20T02:25:24;3.80;99.90
27633;DHT22;15046;50.930;13.334;2023-12-20T02:27:50;3.90;99.90
27633;DHT22;15046;50.930;13.334;2023-12-20T02:30:17;3.80;99.90
27633;DHT22;15046;50.930;13.334;2023-12-20T02:32:43;3.80;99.90
27633;DHT22;15046;50.930;13.334;2023-12-20T02:35:09;3.80;99.90
27633;DHT22;15046;50.930;13.334;2023-12-20T02:37:34;3.80;99.90
27633;DHT22;15046;50.930;13.334;2023-12-20T02:40:00;3.80;99.90
27633;DHT22;15046;50.930;13.334;2023-12-20T02:42:26;3.80;99.90
27633;DHT22;15046;50.930;13.334;2023-12-20T02:44:52;3.80;99.90
27633;DHT22;15046;50.930;13.334;2023-12-20T02:47:18;3.80;99.90
27633;DHT22;15046;50.930;13.334;2023-12-20T02:49:44;3.80;99.90
27633;DHT22;15046;50.930;13.334;2023-12-20T02:52:10;3.80;99.90
27633;DHT22;15046;50.930;13.334;2023-12-20T02:54:36;3.80;99.90
27633;DHT22;15046;50.930;13.334;2023-12-20T02:57:02;3.80;99.90
27633;DHT22;15046;50.930;13.334;2023-12-20T02:59:27;3.80;99.90
27633;DHT22;15046;50.930;13.334;2023-12-20T03:01:53;3.80;99.90
27633;DHT22;15046;50.930;13.334;2023-12-20T03:04:19;3.80;99.90
27633;DHT22;15046;50.930;13.334;2023-12-20T03:06:45;3.80;99.90
27633;DHT22;15046;50.930;13.334;2023-12-20T03:09:11;3.80;99.90
27633;DHT22;15046;50.930;13.334;2023-12-20T03:11:37;3.80;99.90
27633;DHT22;15046;50.930;13.334;2023-12-20T03:14:03;3.80;99.90
27633;DHT22;15046;50.930;13.334;2023-12-20T03:16:29;3.80;99.90
27633;DHT22;15046;50.930;13.334;2023-12-20T03:18:56;3.80;99.90
27633;DHT22;15046;50.930;13.334;2023-12-20T03:21:24;3.80;99.90
27633;DHT22;15046;50.930;13.334;2023-12-20T03:23:50;3.80;99.90
27633;DHT22;15046;50.930;13.334;2023-12-20T03:26:16;3.70;99.90
27633;DHT22;15046;50.930;13.334;2023-12-20T03:28:42;3.80;99.90
27633;DHT22;15046;50.930;13.334;2023-12-20T03:31:09;3.80;99.90
27633;DHT22;15046;50.930;13.334;2023-12-20T03:33:36;3.70;99.90
27633;DHT22;15046;50.930;13.334;2023-12-20T03:36:02;3.80;99.90
27633;DHT22;15046;50.930;13.334;2023-12-20T03:38:28;3.80;99.90
27633;DHT22;15046;50.930;13.334;2023-12-20T03:40:53;3.80;99.90
27633;DHT22;15046;50.930;13.334;2023-12-20T03:43:19;3.70;99.90
27633;DHT22;15046;50.930;13.334;2023-12-20T03:45:45;3.70;99.90
27633;DHT22;15046;50.930;13.334;2023-12-20T03:48:11;3.80;99.90
27633;DHT22;15046;50.930;13.334;2023-12-20T03:50:37;3.80;99.90
27633;DHT22;15046;50.930;13.334;2023-12-20T03:53:03;3.70;99.90
27633;DHT22;15046;50.930;13.334;2023-12-20T03:55:31;3.80;99.90
27633;DHT22;15046;50.930;13.334;2023-12-20T03:57:58;3.80;99.90
27633;DHT22;15046;50.930;13.334;2023-12-20T04:00:24;3.70;99.90
27633;DHT22;15046;50.930;13.334;2023-12-20T04:02:50;3.80;99.90
27633;DHT22;15046;50.930;13.334;2023-12-20T04:05:16;3.80;99.90
27633;DHT22;15046;50.930;13.334;2023-12-20T04:07:42;3.70;99.90
27633;DHT22;15046;50.930;13.334;2023-12-20T04:10:08;3.80;99.90
27633;DHT22;15046;50.930;13.334;2023-12-20T04:12:34;3.80;99.90
27633;DHT22;15046;50.930;13.334;2023-12-20T04:15:00;3.80;99.90
27633;DHT22;15046;50.930;13.334;2023-12-20T04:17:26;3.70;99.90
27633;DHT22;15046;50.930;13.334;2023-12-20T04:19:52;3.70;99.90
27633;DHT22;15046;50.930;13.334;2023-12-20T04:22:18;3.80;99.90
27633;DHT22;15046;50.930;13.334;2023-12-20T04:24:45;3.80;99.90
27633;DHT22;15046;50.930;13.334;2023-12-20T04:27:11;3.80;99.90
27633;DHT22;15046;50.930;13.334;2023-12-20T04:29:37;3.80;99.90
27633;DHT22;15046;50.930;13.334;2023-12-20T04:32:04;3.80;99.90
27633;DHT22;15046;50.930;13.334;2023-12-20T04:34:30;3.80;99.90
27633;DHT22;15046;50.930;13.334;2023-12-20T04:36:56;3.90;99.90
27633;DHT22;15046;50.930;13.334;2023-12-20T04:39:22;3.90;99.90
27633;DHT22;15046;50.930;13.334;2023-12-20T04:41:48;3.90;99.90
27633;DHT22;15046;50.930;13.334;2023-12-20T04:44:14;3.90;99.90
27633;DHT22;15046;50.930;13.334;2023-12-20T04:46:40;3.90;99.90
27633;DHT22;15046;50.930;13.334;2023-12-20T04:49:06;3.90;99.90
27633;DHT22;15046;50.930;13.334;2023-12-20T04:51:35;3.90;99.90
27633;DHT22;15046;50.930;13.334;2023-12-20T04:54:01;3.90;99.90
27633;DHT22;15046;50.930;13.334;2023-12-20T04:56:28;3.90;99.90
27633;DHT22;15046;50.930;13.334;2023-12-20T04:58:54;3.90;99.90
27633;DHT22;15046;50.930;13.334;2023-12-20T05:01:19;3.90;99.90
27633;DHT22;15046;50.930;13.334;2023-12-20T05:03:48;3.90;99.90
27633;DHT22;15046;50.930;13.334;2023-12-20T05:06:14;4.00;99.90
27633;DHT22;15046;50.930;13.334;2023-12-20T05:08:40;4.00;99.90
27633;DHT22;15046;50.930;13.334;2023-12-20T05:11:06;4.00;99.90
27633;DHT22;15046;50.930;13.334;2023-12-20T05:13:32;4.00;99.90
27633;DHT22;15046;50.930;13.334;2023-12-20T05:15:58;4.00;99.90
27633;DHT22;15046;50.930;13.334;2023-12-20T05:18:25;4.00;99.90
27633;DHT22;15046;50.930;13.334;2023-12-20T05:20:51;4.00;99.90
27633;DHT22;15046;50.930;13.334;2023-12-20T05:23:17;4.00;99.90
27633;DHT22;15046;50.930;13.334;2023-12-20T05:25:43;3.90;99.90
27633;DHT22;15046;50.930;13.334;2023-12-20T05:28:09;4.00;99.90
27633;DHT22;15046;50.930;13.334;2023-12-20T05:30:35;4.00;99.90
27633;DHT22;15046;50.930;13.334;2023-12-20T05:33:01;3.90;99.90
27633;DHT22;15046;50.930;13.334;2023-12-20T05:35:27;3.90;99.90
27633;DHT22;15046;50.930;13.334;2023-12-20T05:37:53;3.90;99.90
27633;DHT22;15046;50.930;13.334;2023-12-20T05:40:19;3.90;99.90
27633;DHT22;15046;50.930;13.334;2023-12-20T05:42:44;3.90;99.90
27633;DHT22;15046;50.930;13.334;2023-12-20T05:45:10;4.00;99.90
27633;DHT22;15046;50.930;13.334;2023-12-20T05:47:37;3.90;99.90
27633;DHT22;15046;50.930;13.334;2023-12-20T05:50:03;4.00;99.90
27633;DHT22;15046;50.930;13.334;2023-12-20T05:52:29;4.00;99.90
27633;DHT22;15046;50.930;13.334;2023-12-20T05:54:55;4.00;99.90
27633;DHT22;15046;50.930;13.334;2023-12-20T05:57:23;4.00;99.90
27633;DHT22;15046;50.930;13.334;2023-12-20T05:59:49;4.00;99.90
27633;DHT22;15046;50.930;13.334;2023-12-20T06:02:15;4.00;99.90
27633;DHT22;15046;50.930;13.334;2023-12-20T06:04:44;4.00;99.90
27633;DHT22;15046;50.930;13.334;2023-12-20T06:07:14;4.00;99.90
27633;DHT22;15046;50.930;13.334;2023-12-20T06:09:40;4.00;99.90
27633;DHT22;15046;50.930;13.334;2023-12-20T06:12:07;4.00;99.90
27633;DHT22;15046;50.930;13.334;2023-12-20T06:14:34;4.00;99.90
27633;DHT22;15046;50.930;13.334;2023-12-20T06:17:00;4.00;99.90
27633;DHT22;15046;50.930;13.334;2023-12-20T06:19:29;4.10;99.90
27633;DHT22;15046;50.930;13.334;2023-12-20T06:21:55;4.00;99.90
27633;DHT22;15046;50.930;13.334;2023-12-20T06:24:21;4.10;99.90
27633;DHT22;15046;50.930;13.334;2023-12-20T06:26:47;4.00;99.90
27633;DHT22;15046;50.930;13.334;2023-12-20T06:29:18;4.10;99.90
27633;DHT22;15046;50.930;13.334;2023-12-20T06:31:45;4.00;99.90
27633;DHT22;15046;50.930;13.334;2023-12-20T06:34:11;4.10;99.90
27633;DHT22;15046;50.930;13.334;2023-12-20T06:36:37;4.10;99.90
27633;DHT22;15046;50.930;13.334;2023-12-20T06:39:03;4.10;99.90
27633;DHT22;15046;50.930;13.334;2023-12-20T06:41:30;4.10;99.90
27633;DHT22;15046;50.930;13.334;2023-12-20T06:43:56;4.10;99.90
27633;DHT22;15046;50.930;13.334;2023-12-20T06:46:22;4.10;99.90
27633;DHT22;15046;50.930;13.334;2023-12-20T06:48:48;4.10;99.90
27633;DHT22;15046;50.930;13.334;2023-12-20T06:51:17;4.10;99.90
27633;DHT22;15046;50.930;13.334;2023-12-20T06:53:45;4.10;99.90
27633;DHT22;15046;50.930;13.334;2023-12-20T06:56:11;4.10;99.90
27633;DHT22;15046;50.930;13.334;2023-12-20T06:58:38;4.20;99.90
27633;DHT22;15046;50.930;13.334;2023-12-20T07:01:04;4.10;99.90
27633;DHT22;15046;50.930;13.334;2023-12-20T07:03:31;4.20;99.90
27633;DHT22;15046;50.930;13.334;2023-12-20T07:05:57;4.20;99.90
27633;DHT22;15046;50.930;13.334;2023-12-20T07:08:22;4.20;99.90
27633;DHT22;15046;50.930;13.334;2023-12-20T07:10:48;4.30;99.90
27633;DHT22;15046;50.930;13.334;2023-12-20T07:13:14;4.20;99.90
27633;DHT22;15046;50.930;13.334;2023-12-20T07:15:40;4.20;99.90
27633;DHT22;15046;50.930;13.334;2023-12-20T07:18:06;4.30;99.90
27633;DHT22;15046;50.930;13.334;2023-12-20T07:20:33;4.30;99.90
27633;DHT22;15046;50.930;13.334;2023-12-20T07:23:00;4.30;99.90
27633;DHT22;15046;50.930;13.334;2023-12-20T07:25:25;4.30;99.90
27633;DHT22;15046;50.930;13.334;2023-12-20T07:27:51;4.30;99.90
27633;DHT22;15046;50.930;13.334;2023-12-20T07:30:17;4.30;99.90
27633;DHT22;15046;50.930;13.334;2023-12-20T07:32:43;4.30;99.90
27633;DHT22;15046;50.930;13.334;2023-12-20T07:35:09;4.20;99.90
27633;DHT22;15046;50.930;13.334;2023-12-20T07:37:35;4.20;99.90
27633;DHT22;15046;50.930;13.334;2023-12-20T07:40:01;4.20;99.90
27633;DHT22;15046;50.930;13.334;2023-12-20T07:42:27;4.20;99.90
27633;DHT22;15046;50.930;13.334;2023-12-20T07:44:53;4.20;99.90
27633;DHT22;15046;50.930;13.334;2023-12-20T07:47:19;4.20;99.90
27633;DHT22;15046;50.930;13.334;2023-12-20T07:49:48;4.20;99.90
27633;DHT22;15046;50.930;13.334;2023-12-20T07:52:14;4.10;99.90
27633;DHT22;15046;50.930;13.334;2023-12-20T07:54:40;4.10;99.90
27633;DHT22;15046;50.930;13.334;2023-12-20T07:57:06;4.10;99.90
27633;DHT22;15046;50.930;13.334;2023-12-20T07:59:32;4.10;99.90
27633;DHT22;15046;50.930;13.334;2023-12-20T08:01:58;4.10;99.90
27633;DHT22;15046;50.930;13.334;2023-12-20T08:04:24;4.10;99.90
27633;DHT22;15046;50.930;13.334;2023-12-20T08:06:50;4.00;99.90
27633;DHT22;15046;50.930;13.334;2023-12-20T08:09:16;3.90;99.90
27633;DHT22;15046;50.930;13.334;2023-12-20T08:11:49;3.90;99.90
27633;DHT22;15046;50.930;13.334;2023-12-20T08:14:15;3.80;99.90
27633;DHT22;15046;50.930;13.334;2023-12-20T08:16:41;3.80;99.90
27633;DHT22;15046;50.930;13.334;2023-12-20T08:19:07;3.80;99.90
27633;DHT22;15046;50.930;13.334;2023-12-20T08:21:34;3.80;99.90
27633;DHT22;15046;50.930;13.334;2023-12-20T08:24:00;3.80;99.90
27633;DHT22;15046;50.930;13.334;2023-12-20T08:26:28;3.80;99.90
27633;DHT22;15046;50.930;13.334;2023-12-20T08:28:54;3.80;99.90
27633;DHT22;15046;50.930;13.334;2023-12-20T08:31:20;3.80;99.90
27633;DHT22;15046;50.930;13.334;2023-12-20T08:33:48;3.80;99.90
27633;DHT22;15046;50.930;13.334;2023-12-20T08:36:14;3.90;99.90
27633;DHT22;15046;50.930;13.334;2023-12-20T08:38:40;3.90;99.90
27633;DHT22;15046;50.930;13.334;2023-12-20T08:41:07;4.00;99.90
27633;DHT22;15046;50.930;13.334;2023-12-20T08:43:34;4.20;99.90
27633;DHT22;15046;50.930;13.334;2023-12-20T08:46:01;4.40;99.90
27633;DHT22;15046;50.930;13.334;2023-12-20T08:48:27;4.50;99.90
27633;DHT22;15046;50.930;13.334;2023-12-20T08:50:53;4.50;99.90
27633;DHT22;15046;50.930;13.334;2023-12-20T08:53:19;4.50;99.90
27633;DHT22;15046;50.930;13.334;2023-12-20T08:55:46;4.40;99.90
27633;DHT22;15046;50.930;13.334;2023-12-20T08:58:12;4.40;99.90
27633;DHT22;15046;50.930;13.334;2023-12-20T09:00:38;4.40;99.90
27633;DHT22;15046;50.930;13.334;2023-12-20T09:03:05;4.40;99.90
27633;DHT22;15046;50.930;13.334;2023-12-20T09:05:31;4.50;99.90
27633;DHT22;15046;50.930;13.334;2023-12-20T09:07:57;4.50;99.90
27633;DHT22;15046;50.930;13.334;2023-12-20T09:10:23;4.50;99.90
27633;DHT22;15046;50.930;13.334;2023-12-20T09:12:50;4.50;99.90
27633;DHT22;15046;50.930;13.334;2023-12-20T09:15:17;4.50;99.90
27633;DHT22;15046;50.930;13.334;2023-12-20T09:17:43;4.60;99.90
27633;DHT22;15046;50.930;13.334;2023-12-20T09:20:10;4.90;99.90
27633;DHT22;15046;50.930;13.334;2023-12-20T09:22:36;5.10;99.90
27633;DHT22;15046;50.930;13.334;2023-12-20T09:25:04;5.30;99.90
27633;DHT22;15046;50.930;13.334;2023-12-20T09:27:30;5.50;99.90
27633;DHT22;15046;50.930;13.334;2023-12-20T09:29:56;5.90;99.90
27633;DHT22;15046;50.930;13.334;2023-12-20T09:32:22;6.10;99.90
27633;DHT22;15046;50.930;13.334;2023-12-20T09:34:48;6.20;99.90
27633;DHT22;15046;50.930;13.334;2023-12-20T09:37:14;6.30;99.90
27633;DHT22;15046;50.930;13.334;2023-12-20T09:39:40;6.40;99.90
27633;DHT22;15046;50.930;13.334;2023-12-20T09:42:06;6.50;99.90
27633;DHT22;15046;50.930;13.334;2023-12-20T09:44:34;6.40;99.90
27633;DHT22;15046;50.930;13.334;2023-12-20T09:47:03;6.40;99.90
27633;DHT22;15046;50.930;13.334;2023-12-20T09:49:30;6.40;99.90
27633;DHT22;15046;50.930;13.334;2023-12-20T09:51:56;6.50;99.90
27633;DHT22;15046;50.930;13.334;2023-12-20T09:54:23;6.60;99.90
27633;DHT22;15046;50.930;13.334;2023-12-20T09:56:49;6.70;99.90
27633;DHT22;15046;50.930;13.334;2023-12-20T09:59:15;6.70;99.90
27633;DHT22;15046;50.930;13.334;2023-12-20T10:01:42;6.70;99.90
27633;DHT22;15046;50.930;13.334;2023-12-20T10:04:09;6.60;99.90
27633;DHT22;15046;50.930;13.334;2023-12-20T10:06:46;6.50;99.90
27633;DHT22;15046;50.930;13.334;2023-12-20T10:09:13;6.50;99.90
27633;DHT22;15046;50.930;13.334;2023-12-20T10:11:40;6.70;99.90
27633;DHT22;15046;50.930;13.334;2023-12-20T10:14:06;7.00;99.90
27633;DHT22;15046;50.930;13.334;2023-12-20T10:16:33;7.40;99.90
27633;DHT22;15046;50.930;13.334;2023-12-20T10:19:00;7.80;99.90
27633;DHT22;15046;50.930;13.334;2023-12-20T10:21:29;8.20;99.90
27633;DHT22;15046;50.930;13.334;2023-12-20T10:23:56;8.60;99.90
27633;DHT22;15046;50.930;13.334;2023-12-20T10:26:23;8.80;99.90
27633;DHT22;15046;50.930;13.334;2023-12-20T10:28:59;9.10;99.90
27633;DHT22;15046;50.930;13.334;2023-12-20T10:31:34;8.90;99.90
27633;DHT22;15046;50.930;13.334;2023-12-20T10:34:01;8.30;99.90
27633;DHT22;15046;50.930;13.334;2023-12-20T10:36:30;7.70;99.90
27633;DHT22;15046;50.930;13.334;2023-12-20T10:38:56;7.20;99.90
27633;DHT22;15046;50.930;13.334;2023-12-20T10:41:31;6.90;99.90
27633;DHT22;15046;50.930;13.334;2023-12-20T10:44:00;7.90;99.90
27633;DHT22;15046;50.930;13.334;2023-12-20T10:46:29;9.70;99.90
27633;DHT22;15046;50.930;13.334;2023-12-20T10:48:56;11.20;99.90
27633;DHT22;15046;50.930;13.334;2023-12-20T10:51:23;11.90;99.90
27633;DHT22;15046;50.930;13.334;2023-12-20T10:53:52;12.30;99.90
27633;DHT22;15046;50.930;13.334;2023-12-20T10:56:19;12.20;99.90
27633;DHT22;15046;50.930;13.334;2023-12-20T10:58:48;10.60;99.90
27633;DHT22;15046;50.930;13.334;2023-12-20T11:01:16;9.30;99.90
27633;DHT22;15046;50.930;13.334;2023-12-20T11:03:51;8.50;99.90
27633;DHT22;15046;50.930;13.334;2023-12-20T11:06:29;8.00;99.90
27633;DHT22;15046;50.930;13.334;2023-12-20T11:09:16;7.80;99.90
27633;DHT22;15046;50.930;13.334;2023-12-20T11:11:55;8.50;99.90
27633;DHT22;15046;50.930;13.334;2023-12-20T11:14:46;8.70;99.90
27633;DHT22;15046;50.930;13.334;2023-12-20T11:17:13;9.90;99.90
27633;DHT22;15046;50.930;13.334;2023-12-20T11:22:26;12.40;99.90
27633;DHT22;15046;50.930;13.334;2023-12-20T11:24:53;12.70;99.90
27633;DHT22;15046;50.930;13.334;2023-12-20T11:27:19;12.20;99.90
27633;DHT22;15046;50.930;13.334;2023-12-20T11:29:56;11.40;99.80
27633;DHT22;15046;50.930;13.334;2023-12-20T11:35:00;9.50;99.90
27633;DHT22;15046;50.930;13.334;2023-12-20T11:37:35;8.50;99.90
27633;DHT22;15046;50.930;13.334;2023-12-20T11:40:22;8.00;99.90
27633;DHT22;15046;50.930;13.334;2023-12-20T11:42:49;7.60;99.90
27633;DHT22;15046;50.930;13.334;2023-12-20T11:45:21;7.20;99.90
27633;DHT22;15046;50.930;13.334;2023-12-20T11:47:49;7.00;99.90
27633;DHT22;15046;50.930;13.334;2023-12-20T11:50:22;6.80;99.90
27633;DHT22;15046;50.930;13.334;2023-12-20T11:52:48;6.60;99.90
27633;DHT22;15046;50.930;13.334;2023-12-20T11:55:14;6.50;99.90
27633;DHT22;15046;50.930;13.334;2023-12-20T11:57:41;6.40;99.90
27633;DHT22;15046;50.930;13.334;2023-12-20T12:00:07;6.50;99.90
27633;DHT22;15046;50.930;13.334;2023-12-20T12:02:34;7.80;99.90
27633;DHT22;15046;50.930;13.334;2023-12-20T12:05:00;9.60;99.90
27633;DHT22;15046;50.930;13.334;2023-12-20T12:07:25;10.10;99.90
27633;DHT22;15046;50.930;13.334;2023-12-20T12:09:52;11.10;99.90
27633;DHT22;15046;50.930;13.334;2023-12-20T12:12:19;12.20;98.50
27633;DHT22;15046;50.930;13.334;2023-12-20T12:14:45;12.60;95.20
27633;DHT22;15046;50.930;13.334;2023-12-20T12:17:12;11.30;94.10
27633;DHT22;15046;50.930;13.334;2023-12-20T12:19:42;9.90;94.70
27633;DHT22;15046;50.930;13.334;2023-12-20T12:22:11;8.90;95.80
27633;DHT22;15046;50.930;13.334;2023-12-20T12:24:43;8.30;97.10
27633;DHT22;15046;50.930;13.334;2023-12-20T12:27:10;7.80;97.70
27633;DHT22;15046;50.930;13.334;2023-12-20T12:29:36;7.50;98.60
27633;DHT22;15046;50.930;13.334;2023-12-20T12:32:07;7.30;99.50
27633;DHT22;15046;50.930;13.334;2023-12-20T12:34:37;7.20;99.70
27633;DHT22;15046;50.930;13.334;2023-12-20T12:37:06;7.10;99.90
27633;DHT22;15046;50.930;13.334;2023-12-20T12:39:32;7.40;99.90
27633;DHT22;15046;50.930;13.334;2023-12-20T12:41:59;7.60;99.90
27633;DHT22;15046;50.930;13.334;2023-12-20T12:44:25;7.40;99.90
27633;DHT22;15046;50.930;13.334;2023-12-20T12:46:52;7.30;99.90
27633;DHT22;15046;50.930;13.334;2023-12-20T12:49:22;7.30;99.90
27633;DHT22;15046;50.930;13.334;2023-12-20T12:51:48;7.00;99.90
27633;DHT22;15046;50.930;13.334;2023-12-20T12:54:14;6.80;99.90
27633;DHT22;15046;50.930;13.334;2023-12-20T12:56:42;6.60;99.90
27633;DHT22;15046;50.930;13.334;2023-12-20T12:59:09;6.50;99.90
27633;DHT22;15046;50.930;13.334;2023-12-20T13:01:35;6.40;99.90
27633;DHT22;15046;50.930;13.334;2023-12-20T13:04:01;6.30;99.90
27633;DHT22;15046;50.930;13.334;2023-12-20T13:06:32;6.20;99.90
27633;DHT22;15046;50.930;13.334;2023-12-20T13:08:58;6.20;99.90
27633;DHT22;15046;50.930;13.334;2023-12-20T13:11:24;6.20;99.90
27633;DHT22;15046;50.930;13.334;2023-12-20T13:13:50;6.20;99.90
27633;DHT22;15046;50.930;13.334;2023-12-20T13:16:16;6.30;99.90
27633;DHT22;15046;50.930;13.334;2023-12-20T13:18:42;6.50;99.90
27633;DHT22;15046;50.930;13.334;2023-12-20T13:21:08;7.10;99.90
27633;DHT22;15046;50.930;13.334;2023-12-20T13:23:35;7.20;99.90
27633;DHT22;15046;50.930;13.334;2023-12-20T13:26:02;7.00;99.90
27633;DHT22;15046;50.930;13.334;2023-12-20T13:28:28;6.90;99.90
27633;DHT22;15046;50.930;13.334;2023-12-20T13:30:54;6.70;99.90
27633;DHT22;15046;50.930;13.334;2023-12-20T13:33:20;6.80;99.90
27633;DHT22;15046;50.930;13.334;2023-12-20T13:35:46;6.80;99.90
27633;DHT22;15046;50.930;13.334;2023-12-20T13:38:13;6.80;99.90
27633;DHT22;15046;50.930;13.334;2023-12-20T13:40:38;6.70;99.90
27633;DHT22;15046;50.930;13.334;2023-12-20T13:43:04;6.70;99.90
27633;DHT22;15046;50.930;13.334;2023-12-20T13:45:31;6.60;99.90
27633;DHT22;15046;50.930;13.334;2023-12-20T13:47:58;6.60;99.90
27633;DHT22;15046;50.930;13.334;2023-12-20T13:50:24;6.50;99.90
27633;DHT22;15046;50.930;13.334;2023-12-20T13:52:51;6.40;99.90
27633;DHT22;15046;50.930;13.334;2023-12-20T13:55:17;6.30;99.90
27633;DHT22;15046;50.930;13.334;2023-12-20T13:57:46;6.40;99.90
27633;DHT22;15046;50.930;13.334;2023-12-20T14:00:14;6.30;99.90
27633;DHT22;15046;50.930;13.334;2023-12-20T14:02:41;6.20;99.90
27633;DHT22;15046;50.930;13.334;2023-12-20T14:05:09;6.20;99.90
27633;DHT22;15046;50.930;13.334;2023-12-20T14:07:36;6.10;99.90
27633;DHT22;15046;50.930;13.334;2023-12-20T14:10:03;6.10;99.90
27633;DHT22;15046;50.930;13.334;2023-12-20T14:12:29;6.00;99.90
27633;DHT22;15046;50.930;13.334;2023-12-20T14:14:55;6.00;99.90
27633;DHT22;15046;50.930;13.334;2023-12-20T14:17:22;6.00;99.90
27633;DHT22;15046;50.930;13.334;2023-12-20T14:19:48;6.00;99.90
27633;DHT22;15046;50.930;13.334;2023-12-20T14:22:13;6.00;99.90
27633;DHT22;15046;50.930;13.334;2023-12-20T14:24:42;6.00;99.90
27633;DHT22;15046;50.930;13.334;2023-12-20T14:27:09;6.00;99.90
27633;DHT22;15046;50.930;13.334;2023-12-20T14:29:35;6.00;99.90
27633;DHT22;15046;50.930;13.334;2023-12-20T14:32:01;6.00;99.90
27633;DHT22;15046;50.930;13.334;2023-12-20T14:34:29;6.00;99.90
27633;DHT22;15046;50.930;13.334;2023-12-20T14:36:55;5.90;99.90
27633;DHT22;15046;50.930;13.334;2023-12-20T14:39:21;6.00;99.90
27633;DHT22;15046;50.930;13.334;2023-12-20T14:41:48;5.90;99.90
27633;DHT22;15046;50.930;13.334;2023-12-20T14:44:14;5.90;99.90
27633;DHT22;15046;50.930;13.334;2023-12-20T14:46:41;5.90;99.90
27633;DHT22;15046;50.930;13.334;2023-12-20T14:49:07;5.90;99.90
27633;DHT22;15046;50.930;13.334;2023-12-20T14:51:33;5.90;99.90
27633;DHT22;15046;50.930;13.334;2023-12-20T14:53:59;5.90;99.90
27633;DHT22;15046;50.930;13.334;2023-12-20T14:56:25;5.90;99.90
27633;DHT22;15046;50.930;13.334;2023-12-20T14:58:52;5.90;99.90
27633;DHT22;15046;50.930;13.334;2023-12-20T15:01:18;5.80;99.90
27633;DHT22;15046;50.930;13.334;2023-12-20T15:03:47;5.80;99.90
27633;DHT22;15046;50.930;13.334;2023-12-20T15:06:13;5.80;99.90
27633;DHT22;15046;50.930;13.334;2023-12-20T15:08:39;5.80;99.90
27633;DHT22;15046;50.930;13.334;2023-12-20T15:11:05;5.80;99.90
27633;DHT22;15046;50.930;13.334;2023-12-20T15:13:31;5.70;99.90
27633;DHT22;15046;50.930;13.334;2023-12-20T15:15:58;5.70;99.90
27633;DHT22;15046;50.930;13.334;2023-12-20T15:18:24;5.70;99.90
27633;DHT22;15046;50.930;13.334;2023-12-20T15:20:50;5.70;99.90
27633;DHT22;15046;50.930;13.334;2023-12-20T15:23:16;5.70;99.90
27633;DHT22;15046;50.930;13.334;2023-12-20T15:25:42;5.60;99.90
27633;DHT22;15046;50.930;13.334;2023-12-20T15:28:09;5.60;99.90
27633;DHT22;15046;50.930;13.334;2023-12-20T15:30:35;5.60;99.90
27633;DHT22;15046;50.930;13.334;2023-12-20T15:33:01;5.60;99.90